sensor_id;sensor_type;location;lat;lon;timestamp;temperature;humidity
49413;DHT22;35493;50.276;9.372;2023-08-17T00:00:43;21.20;86.20
49413;DHT22;35493;50.276;9.372;2023-08-17T00:03:10;21.20;86.10
49413;DHT22;35493;50.276;9.372;2023-08-17T00:05:37;21.20;86.10
49413;DHT22;35493;50.276;9.372;2023-08-17T00:08:04;21.20;86.20
49413;DHT22;35493;50.276;9.372;2023-08-17T00:10:31;21.30;86.20
49413;DHT22;35493;50.276;9.372;2023-08-17T00:12:58;21.20;86.10
49413;DHT22;35493;50.276;9.372;2023-08-17T00:15:27;21.20;85.90
49413;DHT22;35493;50.276;9.372;2023-08-17T00:17:54;21.20;86.00
49413;DHT22;35493;50.276;9.372;2023-08-17T00:20:20;21.20;86.20
49413;DHT22;35493;50.276;9.372;2023-08-17T00:22:47;21.10;86.10
49413;DHT22;35493;50.276;9.372;2023-08-17T00:25:14;21.20;85.70
49413;DHT22;35493;50.276;9.372;2023-08-17T00:27:41;21.20;86.00
49413;DHT22;35493;50.276;9.372;2023-08-17T00:30:08;21.20;85.90
49413;DHT22;35493;50.276;9.372;2023-08-17T00:32:37;21.20;86.00
49413;DHT22;35493;50.276;9.372;2023-08-17T00:35:05;21.20;86.10
49413;DHT22;35493;50.276;9.372;2023-08-17T00:37:32;21.20;85.70
49413;DHT22;35493;50.276;9.372;2023-08-17T00:39:59;21.20;85.60
49413;DHT22;35493;50.276;9.372;2023-08-17T00:42:26;21.20;85.70
49413;DHT22;35493;50.276;9.372;2023-08-17T00:44:53;21.10;85.90
49413;DHT22;35493;50.276;9.372;2023-08-17T00:47:19;21.10;85.80
49413;DHT22;35493;50.276;9.372;2023-08-17T00:49:48;21.10;85.70
49413;DHT22;35493;50.276;9.372;2023-08-17T00:52:15;21.10;85.60
49413;DHT22;35493;50.276;9.372;2023-08-17T00:54:42;21.00;85.80
49413;DHT22;35493;50.276;9.372;2023-08-17T00:57:08;20.90;85.80
49413;DHT22;35493;50.276;9.372;2023-08-17T00:59:36;20.90;85.80
49413;DHT22;35493;50.276;9.372;2023-08-17T01:02:03;20.90;85.90
49413;DHT22;35493;50.276;9.372;2023-08-17T01:04:31;20.80;85.90
49413;DHT22;35493;50.276;9.372;2023-08-17T01:06:59;20.80;86.20
49413;DHT22;35493;50.276;9.372;2023-08-17T01:09:26;20.70;86.30
49413;DHT22;35493;50.276;9.372;2023-08-17T01:11:55;20.70;86.40
49413;DHT22;35493;50.276;9.372;2023-08-17T01:14:27;20.60;86.50
49413;DHT22;35493;50.276;9.372;2023-08-17T01:17:00;20.60;86.50
49413;DHT22;35493;50.276;9.372;2023-08-17T01:19:29;20.60;86.60
49413;DHT22;35493;50.276;9.372;2023-08-17T01:21:57;20.50;86.60
49413;DHT22;35493;50.276;9.372;2023-08-17T01:24:28;20.50;86.70
49413;DHT22;35493;50.276;9.372;2023-08-17T01:26:55;20.50;86.60
49413;DHT22;35493;50.276;9.372;2023-08-17T01:29:22;20.50;86.80
49413;DHT22;35493;50.276;9.372;2023-08-17T01:31:51;20.40;86.90
49413;DHT22;35493;50.276;9.372;2023-08-17T01:34:20;20.30;86.90
49413;DHT22;35493;50.276;9.372;2023-08-17T01:36:50;20.30;86.90
49413;DHT22;35493;50.276;9.372;2023-08-17T01:39:18;20.40;86.70
49413;DHT22;35493;50.276;9.372;2023-08-17T01:41:48;20.40;86.50
49413;DHT22;35493;50.276;9.372;2023-08-17T01:44:15;20.40;86.60
49413;DHT22;35493;50.276;9.372;2023-08-17T01:46:44;20.40;86.50
49413;DHT22;35493;50.276;9.372;2023-08-17T01:49:10;20.40;86.30
49413;DHT22;35493;50.276;9.372;2023-08-17T01:51:37;20.40;86.40
49413;DHT22;35493;50.276;9.372;2023-08-17T01:54:05;20.30;86.50
49413;DHT22;35493;50.276;9.372;2023-08-17T01:56:32;20.40;86.50
49413;DHT22;35493;50.276;9.372;2023-08-17T01:59:01;20.30;86.40
49413;DHT22;35493;50.276;9.372;2023-08-17T02:01:27;20.30;86.60
49413;DHT22;35493;50.276;9.372;2023-08-17T02:03:55;20.20;86.80
49413;DHT22;35493;50.276;9.372;2023-08-17T02:06:22;20.20;86.90
49413;DHT22;35493;50.276;9.372;2023-08-17T02:08:49;20.20;87.00
49413;DHT22;35493;50.276;9.372;2023-08-17T02:11:15;20.10;87.00
49413;DHT22;35493;50.276;9.372;2023-08-17T02:13:43;20.10;87.10
49413;DHT22;35493;50.276;9.372;2023-08-17T02:16:12;20.10;87.00
49413;DHT22;35493;50.276;9.372;2023-08-17T02:18:38;20.10;86.90
49413;DHT22;35493;50.276;9.372;2023-08-17T02:21:06;20.20;86.70
49413;DHT22;35493;50.276;9.372;2023-08-17T02:23:34;20.10;86.90
49413;DHT22;35493;50.276;9.372;2023-08-17T02:26:01;20.10;87.10
49413;DHT22;35493;50.276;9.372;2023-08-17T02:28:30;20.10;87.20
49413;DHT22;35493;50.276;9.372;2023-08-17T02:30:57;20.00;87.20
49413;DHT22;35493;50.276;9.372;2023-08-17T02:33:28;20.00;87.30
49413;DHT22;35493;50.276;9.372;2023-08-17T02:35:55;20.10;87.40
49413;DHT22;35493;50.276;9.372;2023-08-17T02:38:22;20.10;87.50
49413;DHT22;35493;50.276;9.372;2023-08-17T02:40:49;20.10;87.20
49413;DHT22;35493;50.276;9.372;2023-08-17T02:43:16;20.10;87.20
49413;DHT22;35493;50.276;9.372;2023-08-17T02:45:43;20.00;87.30
49413;DHT22;35493;50.276;9.372;2023-08-17T02:48:10;20.00;87.40
49413;DHT22;35493;50.276;9.372;2023-08-17T02:50:39;20.00;87.30
49413;DHT22;35493;50.276;9.372;2023-08-17T02:53:06;20.00;87.40
49413;DHT22;35493;50.276;9.372;2023-08-17T02:55:33;19.90;87.40
49413;DHT22;35493;50.276;9.372;2023-08-17T02:58:00;19.90;87.50
49413;DHT22;35493;50.276;9.372;2023-08-17T03:00:28;19.90;87.40
49413;DHT22;35493;50.276;9.372;2023-08-17T03:02:56;19.90;87.40
49413;DHT22;35493;50.276;9.372;2023-08-17T03:05:25;19.90;87.40
49413;DHT22;35493;50.276;9.372;2023-08-17T03:07:53;19.80;87.30
49413;DHT22;35493;50.276;9.372;2023-08-17T03:10:20;19.90;87.30
49413;DHT22;35493;50.276;9.372;2023-08-17T03:12:47;19.90;87.40
49413;DHT22;35493;50.276;9.372;2023-08-17T03:15:14;19.90;87.60
49413;DHT22;35493;50.276;9.372;2023-08-17T03:17:42;19.80;87.70
49413;DHT22;35493;50.276;9.372;2023-08-17T03:20:09;19.70;88.10
49413;DHT22;35493;50.276;9.372;2023-08-17T03:22:36;19.70;88.30
49413;DHT22;35493;50.276;9.372;2023-08-17T03:25:06;19.60;88.40
49413;DHT22;35493;50.276;9.372;2023-08-17T03:27:34;19.60;88.50
49413;DHT22;35493;50.276;9.372;2023-08-17T03:30:03;19.80;88.60
49413;DHT22;35493;50.276;9.372;2023-08-17T03:32:31;20.00;88.40
49413;DHT22;35493;50.276;9.372;2023-08-17T03:34:58;20.10;87.80
49413;DHT22;35493;50.276;9.372;2023-08-17T03:37:25;20.10;87.60
49413;DHT22;35493;50.276;9.372;2023-08-17T03:39:54;20.10;87.70
49413;DHT22;35493;50.276;9.372;2023-08-17T03:42:22;20.10;87.60
49413;DHT22;35493;50.276;9.372;2023-08-17T03:44:49;20.00;87.60
49413;DHT22;35493;50.276;9.372;2023-08-17T03:47:17;19.90;87.70
49413;DHT22;35493;50.276;9.372;2023-08-17T03:49:44;19.90;87.90
49413;DHT22;35493;50.276;9.372;2023-08-17T03:52:12;20.00;87.80
49413;DHT22;35493;50.276;9.372;2023-08-17T03:54:40;19.90;87.80
49413;DHT22;35493;50.276;9.372;2023-08-17T03:57:07;19.90;88.00
49413;DHT22;35493;50.276;9.372;2023-08-17T03:59:35;19.90;88.00
49413;DHT22;35493;50.276;9.372;2023-08-17T04:02:02;19.90;88.00
49413;DHT22;35493;50.276;9.372;2023-08-17T04:04:29;20.00;87.60
49413;DHT22;35493;50.276;9.372;2023-08-17T04:06:57;20.10;87.60
49413;DHT22;35493;50.276;9.372;2023-08-17T04:09:24;20.10;87.80
49413;DHT22;35493;50.276;9.372;2023-08-17T04:11:52;20.00;87.80
49413;DHT22;35493;50.276;9.372;2023-08-17T04:14:20;20.00;87.90
49413;DHT22;35493;50.276;9.372;2023-08-17T04:16:49;20.00;88.00
49413;DHT22;35493;50.276;9.372;2023-08-17T04:19:17;19.90;88.10
49413;DHT22;35493;50.276;9.372;2023-08-17T04:21:44;19.90;88.00
49413;DHT22;35493;50.276;9.372;2023-08-17T04:24:11;19.90;88.00
49413;DHT22;35493;50.276;9.372;2023-08-17T04:26:38;19.90;88.10
49413;DHT22;35493;50.276;9.372;2023-08-17T04:29:05;19.80;88.10
49413;DHT22;35493;50.276;9.372;2023-08-17T04:31:32;19.80;88.20
49413;DHT22;35493;50.276;9.372;2023-08-17T04:34:03;19.80;88.10
49413;DHT22;35493;50.276;9.372;2023-08-17T04:36:30;19.90;88.10
49413;DHT22;35493;50.276;9.372;2023-08-17T04:38:57;19.90;87.70
49413;DHT22;35493;50.276;9.372;2023-08-17T04:41:24;19.90;87.70
49413;DHT22;35493;50.276;9.372;2023-08-17T04:43:52;20.00;87.70
49413;DHT22;35493;50.276;9.372;2023-08-17T04:46:20;20.00;87.50
49413;DHT22;35493;50.276;9.372;2023-08-17T04:48:46;20.00;87.40
49413;DHT22;35493;50.276;9.372;2023-08-17T04:51:16;20.00;87.40
49413;DHT22;35493;50.276;9.372;2023-08-17T04:53:43;20.00;87.50
49413;DHT22;35493;50.276;9.372;2023-08-17T04:56:10;19.90;87.30
49413;DHT22;35493;50.276;9.372;2023-08-17T04:58:38;20.00;87.50
49413;DHT22;35493;50.276;9.372;2023-08-17T05:01:10;20.00;87.50
49413;DHT22;35493;50.276;9.372;2023-08-17T05:03:47;20.00;87.70
49413;DHT22;35493;50.276;9.372;2023-08-17T05:06:27;20.00;87.60
49413;DHT22;35493;50.276;9.372;2023-08-17T05:09:19;20.00;87.60
49413;DHT22;35493;50.276;9.372;2023-08-17T05:11:57;20.00;87.20
49413;DHT22;35493;50.276;9.372;2023-08-17T05:14:34;20.00;87.40
49413;DHT22;35493;50.276;9.372;2023-08-17T05:17:10;19.90;87.30
49413;DHT22;35493;50.276;9.372;2023-08-17T05:19:43;20.00;87.10
49413;DHT22;35493;50.276;9.372;2023-08-17T05:22:21;19.90;87.30
49413;DHT22;35493;50.276;9.372;2023-08-17T05:25:00;20.00;87.00
49413;DHT22;35493;50.276;9.372;2023-08-17T05:27:39;20.00;87.10
49413;DHT22;35493;50.276;9.372;2023-08-17T05:30:23;19.90;87.20
49413;DHT22;35493;50.276;9.372;2023-08-17T05:32:59;20.00;87.00
49413;DHT22;35493;50.276;9.372;2023-08-17T05:35:38;20.00;87.10
49413;DHT22;35493;50.276;9.372;2023-08-17T05:38:29;20.10;87.00
49413;DHT22;35493;50.276;9.372;2023-08-17T05:41:06;20.00;87.20
49413;DHT22;35493;50.276;9.372;2023-08-17T05:43:43;20.10;86.90
49413;DHT22;35493;50.276;9.372;2023-08-17T05:46:21;20.10;87.20
49413;DHT22;35493;50.276;9.372;2023-08-17T05:48:57;20.10;86.90
49413;DHT22;35493;50.276;9.372;2023-08-17T05:51:31;20.10;86.60
49413;DHT22;35493;50.276;9.372;2023-08-17T05:54:11;20.10;86.70
49413;DHT22;35493;50.276;9.372;2023-08-17T05:56:48;20.10;86.80
49413;DHT22;35493;50.276;9.372;2023-08-17T05:59:30;20.10;86.70
49413;DHT22;35493;50.276;9.372;2023-08-17T06:02:05;20.20;86.70
49413;DHT22;35493;50.276;9.372;2023-08-17T06:04:41;20.20;86.50
49413;DHT22;35493;50.276;9.372;2023-08-17T06:07:22;20.20;86.40
49413;DHT22;35493;50.276;9.372;2023-08-17T06:10:07;20.30;86.40
49413;DHT22;35493;50.276;9.372;2023-08-17T06:12:47;20.20;86.50
49413;DHT22;35493;50.276;9.372;2023-08-17T06:15:24;20.20;86.60
49413;DHT22;35493;50.276;9.372;2023-08-17T06:18:01;20.20;86.60
49413;DHT22;35493;50.276;9.372;2023-08-17T06:20:37;20.20;86.60
49413;DHT22;35493;50.276;9.372;2023-08-17T06:23:16;20.30;86.50
49413;DHT22;35493;50.276;9.372;2023-08-17T06:25:56;20.30;86.70
49413;DHT22;35493;50.276;9.372;2023-08-17T06:28:41;20.40;86.70
49413;DHT22;35493;50.276;9.372;2023-08-17T06:31:17;20.40;86.40
49413;DHT22;35493;50.276;9.372;2023-08-17T06:33:59;20.40;86.20
49413;DHT22;35493;50.276;9.372;2023-08-17T06:36:37;20.40;86.50
49413;DHT22;35493;50.276;9.372;2023-08-17T06:39:15;20.40;86.60
49413;DHT22;35493;50.276;9.372;2023-08-17T06:41:57;20.50;86.50
49413;DHT22;35493;50.276;9.372;2023-08-17T06:44:33;20.50;86.40
49413;DHT22;35493;50.276;9.372;2023-08-17T06:47:18;20.40;86.60
49413;DHT22;35493;50.276;9.372;2023-08-17T06:49:54;20.50;86.40
49413;DHT22;35493;50.276;9.372;2023-08-17T06:52:31;20.60;85.90
49413;DHT22;35493;50.276;9.372;2023-08-17T06:55:10;20.60;86.00
49413;DHT22;35493;50.276;9.372;2023-08-17T06:58:00;20.70;85.80
49413;DHT22;35493;50.276;9.372;2023-08-17T07:00:38;20.80;85.80
49413;DHT22;35493;50.276;9.372;2023-08-17T07:03:15;20.80;86.00
49413;DHT22;35493;50.276;9.372;2023-08-17T07:05:52;20.80;85.10
49413;DHT22;35493;50.276;9.372;2023-08-17T07:08:29;20.80;85.90
49413;DHT22;35493;50.276;9.372;2023-08-17T07:11:05;20.90;85.80
49413;DHT22;35493;50.276;9.372;2023-08-17T07:13:55;21.00;85.80
49413;DHT22;35493;50.276;9.372;2023-08-17T07:16:32;21.10;85.70
49413;DHT22;35493;50.276;9.372;2023-08-17T07:19:14;21.20;85.30
49413;DHT22;35493;50.276;9.372;2023-08-17T07:21:52;21.30;85.70
49413;DHT22;35493;50.276;9.372;2023-08-17T07:24:32;21.40;85.40
49413;DHT22;35493;50.276;9.372;2023-08-17T07:27:12;21.30;85.30
49413;DHT22;35493;50.276;9.372;2023-08-17T07:29:57;21.40;85.30
49413;DHT22;35493;50.276;9.372;2023-08-17T07:32:35;21.40;85.50
49413;DHT22;35493;50.276;9.372;2023-08-17T07:35:11;21.50;85.30
49413;DHT22;35493;50.276;9.372;2023-08-17T07:37:49;21.60;85.20
49413;DHT22;35493;50.276;9.372;2023-08-17T07:40:26;21.80;85.20
49413;DHT22;35493;50.276;9.372;2023-08-17T07:43:04;21.80;85.10
49413;DHT22;35493;50.276;9.372;2023-08-17T07:45:44;21.80;85.00
49413;DHT22;35493;50.276;9.372;2023-08-17T07:48:27;21.80;85.20
49413;DHT22;35493;50.276;9.372;2023-08-17T07:51:03;21.70;85.10
49413;DHT22;35493;50.276;9.372;2023-08-17T07:53:39;21.70;84.90
49413;DHT22;35493;50.276;9.372;2023-08-17T07:56:18;22.10;85.20
49413;DHT22;35493;50.276;9.372;2023-08-17T07:58:54;22.30;85.20
49413;DHT22;35493;50.276;9.372;2023-08-17T08:01:34;22.50;84.90
49413;DHT22;35493;50.276;9.372;2023-08-17T08:04:12;22.60;84.60
49413;DHT22;35493;50.276;9.372;2023-08-17T08:06:52;22.80;84.00
49413;DHT22;35493;50.276;9.372;2023-08-17T08:09:29;22.90;83.80
49413;DHT22;35493;50.276;9.372;2023-08-17T08:12:03;23.10;83.50
49413;DHT22;35493;50.276;9.372;2023-08-17T08:14:43;23.10;83.20
49413;DHT22;35493;50.276;9.372;2023-08-17T08:17:23;23.30;83.30
49413;DHT22;35493;50.276;9.372;2023-08-17T08:20:04;23.40;82.80
49413;DHT22;35493;50.276;9.372;2023-08-17T08:22:39;23.60;82.70
49413;DHT22;35493;50.276;9.372;2023-08-17T08:25:23;23.60;82.50
49413;DHT22;35493;50.276;9.372;2023-08-17T08:27:59;23.80;82.30
49413;DHT22;35493;50.276;9.372;2023-08-17T08:30:36;23.90;81.70
49413;DHT22;35493;50.276;9.372;2023-08-17T08:33:15;24.00;81.30
49413;DHT22;35493;50.276;9.372;2023-08-17T08:35:52;24.10;80.80
49413;DHT22;35493;50.276;9.372;2023-08-17T08:38:29;24.20;80.50
49413;DHT22;35493;50.276;9.372;2023-08-17T08:41:11;24.20;80.70
49413;DHT22;35493;50.276;9.372;2023-08-17T08:43:46;24.20;80.20
49413;DHT22;35493;50.276;9.372;2023-08-17T08:46:22;24.30;80.50
49413;DHT22;35493;50.276;9.372;2023-08-17T08:49:06;24.40;80.50
49413;DHT22;35493;50.276;9.372;2023-08-17T08:51:50;24.60;80.10
49413;DHT22;35493;50.276;9.372;2023-08-17T08:54:22;24.60;79.50
49413;DHT22;35493;50.276;9.372;2023-08-17T08:56:59;24.70;79.20
49413;DHT22;35493;50.276;9.372;2023-08-17T08:59:37;24.80;79.30
49413;DHT22;35493;50.276;9.372;2023-08-17T09:02:24;25.00;79.10
49413;DHT22;35493;50.276;9.372;2023-08-17T09:05:14;25.10;79.00
49413;DHT22;35493;50.276;9.372;2023-08-17T09:07:52;25.10;78.80
49413;DHT22;35493;50.276;9.372;2023-08-17T09:10:29;25.20;78.60
49413;DHT22;35493;50.276;9.372;2023-08-17T09:13:04;25.20;77.80
49413;DHT22;35493;50.276;9.372;2023-08-17T09:15:43;25.30;77.80
49413;DHT22;35493;50.276;9.372;2023-08-17T09:18:20;25.40;76.90
49413;DHT22;35493;50.276;9.372;2023-08-17T09:21:02;25.50;77.20
49413;DHT22;35493;50.276;9.372;2023-08-17T09:23:43;25.60;77.30
49413;DHT22;35493;50.276;9.372;2023-08-17T09:26:22;25.60;77.80
49413;DHT22;35493;50.276;9.372;2023-08-17T09:28:59;25.80;77.80
49413;DHT22;35493;50.276;9.372;2023-08-17T09:31:42;25.90;77.30
49413;DHT22;35493;50.276;9.372;2023-08-17T09:34:15;26.00;77.30
49413;DHT22;35493;50.276;9.372;2023-08-17T09:36:57;26.00;77.50
49413;DHT22;35493;50.276;9.372;2023-08-17T09:39:37;26.10;77.50
49413;DHT22;35493;50.276;9.372;2023-08-17T09:42:14;26.20;76.70
49413;DHT22;35493;50.276;9.372;2023-08-17T09:44:55;26.20;76.80
49413;DHT22;35493;50.276;9.372;2023-08-17T09:47:34;26.30;76.50
49413;DHT22;35493;50.276;9.372;2023-08-17T09:50:12;26.40;76.00
49413;DHT22;35493;50.276;9.372;2023-08-17T09:52:52;26.50;75.60
49413;DHT22;35493;50.276;9.372;2023-08-17T09:55:29;26.60;74.70
49413;DHT22;35493;50.276;9.372;2023-08-17T09:58:06;26.70;74.30
49413;DHT22;35493;50.276;9.372;2023-08-17T10:00:45;26.70;74.60
49413;DHT22;35493;50.276;9.372;2023-08-17T10:03:22;26.90;74.10
49413;DHT22;35493;50.276;9.372;2023-08-17T10:06:03;26.80;74.60
49413;DHT22;35493;50.276;9.372;2023-08-17T10:08:51;27.00;75.10
49413;DHT22;35493;50.276;9.372;2023-08-17T10:11:35;27.10;74.50
49413;DHT22;35493;50.276;9.372;2023-08-17T10:14:15;27.10;74.20
49413;DHT22;35493;50.276;9.372;2023-08-17T10:16:45;27.20;73.70
49413;DHT22;35493;50.276;9.372;2023-08-17T10:19:13;27.30;73.90
49413;DHT22;35493;50.276;9.372;2023-08-17T10:21:43;27.30;73.60
49413;DHT22;35493;50.276;9.372;2023-08-17T10:24:14;27.20;73.50
49413;DHT22;35493;50.276;9.372;2023-08-17T10:26:42;27.00;73.50
49413;DHT22;35493;50.276;9.372;2023-08-17T10:29:09;26.60;73.70
49413;DHT22;35493;50.276;9.372;2023-08-17T10:31:37;26.60;74.30
49413;DHT22;35493;50.276;9.372;2023-08-17T10:34:04;26.50;74.90
49413;DHT22;35493;50.276;9.372;2023-08-17T10:36:31;26.30;74.80
49413;DHT22;35493;50.276;9.372;2023-08-17T10:39:19;26.60;74.80
49413;DHT22;35493;50.276;9.372;2023-08-17T10:41:47;26.80;75.10
49413;DHT22;35493;50.276;9.372;2023-08-17T10:44:14;27.10;74.50
49413;DHT22;35493;50.276;9.372;2023-08-17T10:46:41;27.20;74.10
49413;DHT22;35493;50.276;9.372;2023-08-17T10:49:24;27.40;74.00
49413;DHT22;35493;50.276;9.372;2023-08-17T10:51:59;27.60;73.40
49413;DHT22;35493;50.276;9.372;2023-08-17T10:54:36;27.70;73.20
49413;DHT22;35493;50.276;9.372;2023-08-17T11:00:04;27.90;73.00
49413;DHT22;35493;50.276;9.372;2023-08-17T11:02:32;28.00;72.30
49413;DHT22;35493;50.276;9.372;2023-08-17T11:04:59;28.10;71.90
49413;DHT22;35493;50.276;9.372;2023-08-17T11:07:27;28.10;71.50
49413;DHT22;35493;50.276;9.372;2023-08-17T11:09:58;28.10;71.00
49413;DHT22;35493;50.276;9.372;2023-08-17T11:12:25;28.20;70.40
49413;DHT22;35493;50.276;9.372;2023-08-17T11:14:52;28.20;70.10
49413;DHT22;35493;50.276;9.372;2023-08-17T11:17:20;28.30;69.60
49413;DHT22;35493;50.276;9.372;2023-08-17T11:19:47;28.30;69.50
49413;DHT22;35493;50.276;9.372;2023-08-17T11:22:16;28.30;69.50
49413;DHT22;35493;50.276;9.372;2023-08-17T11:24:43;28.10;69.60
49413;DHT22;35493;50.276;9.372;2023-08-17T11:27:12;28.10;69.40
49413;DHT22;35493;50.276;9.372;2023-08-17T11:29:39;28.10;68.90
49413;DHT22;35493;50.276;9.372;2023-08-17T11:32:08;28.00;69.30
49413;DHT22;35493;50.276;9.372;2023-08-17T11:34:36;27.90;69.30
49413;DHT22;35493;50.276;9.372;2023-08-17T11:37:03;28.00;69.20
49413;DHT22;35493;50.276;9.372;2023-08-17T11:39:32;28.00;69.30
49413;DHT22;35493;50.276;9.372;2023-08-17T11:42:00;28.10;69.60
49413;DHT22;35493;50.276;9.372;2023-08-17T11:44:28;28.10;69.50
49413;DHT22;35493;50.276;9.372;2023-08-17T11:46:55;28.20;69.10
49413;DHT22;35493;50.276;9.372;2023-08-17T11:49:22;28.30;68.10
49413;DHT22;35493;50.276;9.372;2023-08-17T11:51:51;28.30;67.80
49413;DHT22;35493;50.276;9.372;2023-08-17T11:54:18;28.30;68.30
49413;DHT22;35493;50.276;9.372;2023-08-17T11:56:45;28.30;68.00
49413;DHT22;35493;50.276;9.372;2023-08-17T11:59:13;28.30;68.40
49413;DHT22;35493;50.276;9.372;2023-08-17T12:01:45;28.40;67.90
49413;DHT22;35493;50.276;9.372;2023-08-17T12:04:12;28.30;68.20
49413;DHT22;35493;50.276;9.372;2023-08-17T12:06:41;28.30;68.00
49413;DHT22;35493;50.276;9.372;2023-08-17T12:09:09;28.20;67.70
49413;DHT22;35493;50.276;9.372;2023-08-17T12:11:38;28.30;67.60
49413;DHT22;35493;50.276;9.372;2023-08-17T12:14:08;28.40;67.10
49413;DHT22;35493;50.276;9.372;2023-08-17T12:16:44;28.60;67.10
49413;DHT22;35493;50.276;9.372;2023-08-17T12:19:13;28.60;66.70
49413;DHT22;35493;50.276;9.372;2023-08-17T12:21:40;28.50;67.30
49413;DHT22;35493;50.276;9.372;2023-08-17T12:24:08;28.40;67.80
49413;DHT22;35493;50.276;9.372;2023-08-17T12:26:35;28.20;67.50
49413;DHT22;35493;50.276;9.372;2023-08-17T12:29:04;28.10;68.10
49413;DHT22;35493;50.276;9.372;2023-08-17T12:31:31;28.10;67.10
49413;DHT22;35493;50.276;9.372;2023-08-17T12:33:58;28.20;67.00
49413;DHT22;35493;50.276;9.372;2023-08-17T12:36:26;28.20;67.10
49413;DHT22;35493;50.276;9.372;2023-08-17T12:38:54;28.30;66.20
49413;DHT22;35493;50.276;9.372;2023-08-17T12:41:21;28.40;66.30
49413;DHT22;35493;50.276;9.372;2023-08-17T12:43:48;28.40;66.70
49413;DHT22;35493;50.276;9.372;2023-08-17T12:46:14;28.50;67.10
49413;DHT22;35493;50.276;9.372;2023-08-17T12:48:41;28.50;66.30
49413;DHT22;35493;50.276;9.372;2023-08-17T12:51:08;28.40;66.20
49413;DHT22;35493;50.276;9.372;2023-08-17T12:53:37;28.40;66.50
49413;DHT22;35493;50.276;9.372;2023-08-17T12:56:04;28.30;66.90
49413;DHT22;35493;50.276;9.372;2023-08-17T12:58:31;28.40;66.40
49413;DHT22;35493;50.276;9.372;2023-08-17T13:00:58;28.40;65.50
49413;DHT22;35493;50.276;9.372;2023-08-17T13:03:24;28.40;65.10
49413;DHT22;35493;50.276;9.372;2023-08-17T13:05:51;28.50;64.40
49413;DHT22;35493;50.276;9.372;2023-08-17T13:08:18;28.50;64.20
49413;DHT22;35493;50.276;9.372;2023-08-17T13:10:47;28.40;65.20
49413;DHT22;35493;50.276;9.372;2023-08-17T13:13:14;28.30;65.90
49413;DHT22;35493;50.276;9.372;2023-08-17T13:15:41;28.40;65.00
49413;DHT22;35493;50.276;9.372;2023-08-17T13:18:08;28.40;63.30
49413;DHT22;35493;50.276;9.372;2023-08-17T13:20:35;28.40;64.30
49413;DHT22;35493;50.276;9.372;2023-08-17T13:23:03;28.30;64.70
49413;DHT22;35493;50.276;9.372;2023-08-17T13:25:30;28.30;65.50
49413;DHT22;35493;50.276;9.372;2023-08-17T13:27:59;28.30;65.30
49413;DHT22;35493;50.276;9.372;2023-08-17T13:30:26;28.40;64.20
49413;DHT22;35493;50.276;9.372;2023-08-17T13:32:53;28.30;65.20
49413;DHT22;35493;50.276;9.372;2023-08-17T13:35:20;28.10;65.70
49413;DHT22;35493;50.276;9.372;2023-08-17T13:37:50;28.10;66.00
49413;DHT22;35493;50.276;9.372;2023-08-17T13:40:18;28.10;65.70
49413;DHT22;35493;50.276;9.372;2023-08-17T13:42:45;28.20;65.40
49413;DHT22;35493;50.276;9.372;2023-08-17T13:45:13;28.30;65.00
49413;DHT22;35493;50.276;9.372;2023-08-17T13:47:40;28.30;64.50
49413;DHT22;35493;50.276;9.372;2023-08-17T13:50:07;28.30;65.40
49413;DHT22;35493;50.276;9.372;2023-08-17T13:52:34;28.20;65.60
49413;DHT22;35493;50.276;9.372;2023-08-17T13:55:01;28.10;65.90
49413;DHT22;35493;50.276;9.372;2023-08-17T13:57:28;28.10;66.60
49413;DHT22;35493;50.276;9.372;2023-08-17T13:59:55;28.00;66.70
49413;DHT22;35493;50.276;9.372;2023-08-17T14:02:24;28.00;66.90
49413;DHT22;35493;50.276;9.372;2023-08-17T14:04:51;28.00;66.50
49413;DHT22;35493;50.276;9.372;2023-08-17T14:07:18;28.00;66.40
49413;DHT22;35493;50.276;9.372;2023-08-17T14:09:45;28.10;66.40
49413;DHT22;35493;50.276;9.372;2023-08-17T14:12:12;28.00;66.60
49413;DHT22;35493;50.276;9.372;2023-08-17T14:14:39;28.10;66.40
49413;DHT22;35493;50.276;9.372;2023-08-17T14:17:06;28.10;66.40
49413;DHT22;35493;50.276;9.372;2023-08-17T14:19:34;28.10;66.50
49413;DHT22;35493;50.276;9.372;2023-08-17T14:22:01;28.00;66.30
49413;DHT22;35493;50.276;9.372;2023-08-17T14:24:28;28.00;66.00
49413;DHT22;35493;50.276;9.372;2023-08-17T14:26:55;28.00;66.90
49413;DHT22;35493;50.276;9.372;2023-08-17T14:29:23;28.00;67.50
49413;DHT22;35493;50.276;9.372;2023-08-17T14:31:50;28.00;67.50
49413;DHT22;35493;50.276;9.372;2023-08-17T14:34:17;28.00;67.50
49413;DHT22;35493;50.276;9.372;2023-08-17T14:36:46;28.00;67.70
49413;DHT22;35493;50.276;9.372;2023-08-17T14:39:13;27.90;68.10
49413;DHT22;35493;50.276;9.372;2023-08-17T14:41:40;28.00;68.30
49413;DHT22;35493;50.276;9.372;2023-08-17T14:44:07;27.90;68.70
49413;DHT22;35493;50.276;9.372;2023-08-17T14:46:34;28.00;68.80
49413;DHT22;35493;50.276;9.372;2023-08-17T14:49:01;28.00;68.90
49413;DHT22;35493;50.276;9.372;2023-08-17T14:51:28;28.00;69.00
49413;DHT22;35493;50.276;9.372;2023-08-17T14:53:57;28.10;68.80
49413;DHT22;35493;50.276;9.372;2023-08-17T14:56:24;28.00;68.80
49413;DHT22;35493;50.276;9.372;2023-08-17T14:58:51;28.00;68.90
49413;DHT22;35493;50.276;9.372;2023-08-17T15:01:18;27.90;69.10
49413;DHT22;35493;50.276;9.372;2023-08-17T15:03:44;28.00;69.20
49413;DHT22;35493;50.276;9.372;2023-08-17T15:06:12;27.90;69.20
49413;DHT22;35493;50.276;9.372;2023-08-17T15:08:39;27.90;68.90
49413;DHT22;35493;50.276;9.372;2023-08-17T15:11:07;28.00;69.20
49413;DHT22;35493;50.276;9.372;2023-08-17T15:13:34;28.00;69.20
49413;DHT22;35493;50.276;9.372;2023-08-17T15:16:01;28.00;69.80
49413;DHT22;35493;50.276;9.372;2023-08-17T15:18:28;28.00;69.80
49413;DHT22;35493;50.276;9.372;2023-08-17T15:20:55;28.00;69.60
49413;DHT22;35493;50.276;9.372;2023-08-17T15:23:22;28.10;69.50
49413;DHT22;35493;50.276;9.372;2023-08-17T15:25:49;28.00;69.60
49413;DHT22;35493;50.276;9.372;2023-08-17T15:28:18;28.00;69.60
49413;DHT22;35493;50.276;9.372;2023-08-17T15:30:45;27.90;69.90
49413;DHT22;35493;50.276;9.372;2023-08-17T15:33:12;27.90;69.70
49413;DHT22;35493;50.276;9.372;2023-08-17T15:35:39;28.00;69.70
49413;DHT22;35493;50.276;9.372;2023-08-17T15:38:08;28.00;69.30
49413;DHT22;35493;50.276;9.372;2023-08-17T15:40:35;28.00;68.80
49413;DHT22;35493;50.276;9.372;2023-08-17T15:43:02;28.00;69.20
49413;DHT22;35493;50.276;9.372;2023-08-17T15:45:31;28.00;69.30
49413;DHT22;35493;50.276;9.372;2023-08-17T15:47:58;28.00;69.30
49413;DHT22;35493;50.276;9.372;2023-08-17T15:50:25;28.00;69.50
49413;DHT22;35493;50.276;9.372;2023-08-17T15:52:51;27.90;69.70
49413;DHT22;35493;50.276;9.372;2023-08-17T15:55:18;27.90;69.50
49413;DHT22;35493;50.276;9.372;2023-08-17T15:57:45;27.90;69.50